createdAt,value
2022-11-12T00:01:03.093Z,5.59
2022-11-12T00:03:30.006Z,5.59
2022-11-12T00:05:57.076Z,5.38
2022-11-12T00:08:24.406Z,5.59
2022-11-12T00:10:51.553Z,5.54
2022-11-12T00:13:18.553Z,5.53
2022-11-12T00:15:47.294Z,5.53
2022-11-12T00:18:14.522Z,5.51
2022-11-12T00:20:42.558Z,5.50
2022-11-12T00:23:09.980Z,5.50
2022-11-12T00:25:36.947Z,5.50
2022-11-12T00:28:06.426Z,5.49
2022-11-12T00:30:33.598Z,5.48
2022-11-12T00:33:05.114Z,5.47
2022-11-12T00:35:33.486Z,5.18
2022-11-12T00:38:01.042Z,5.47
2022-11-12T00:40:29.049Z,5.45
2022-11-12T00:42:55.969Z,5.44
2022-11-12T00:45:23.398Z,5.42
2022-11-12T00:47:50.554Z,5.40
2022-11-12T00:50:17.692Z,5.38
2022-11-12T00:52:44.617Z,5.37
2022-11-12T00:55:11.727Z,5.33
2022-11-12T00:57:38.950Z,5.30
2022-11-12T01:00:07.296Z,5.28
2022-11-12T01:02:42.276Z,5.19
2022-11-12T01:05:10.743Z,5.18
2022-11-12T01:07:37.658Z,5.09
2022-11-12T01:10:05.004Z,5.07
2022-11-12T01:12:32.780Z,5.06
2022-11-12T01:14:59.812Z,4.72
2022-11-12T01:17:26.938Z,4.94
2022-11-12T01:19:53.931Z,4.95
2022-11-12T01:22:20.860Z,4.94
2022-11-12T01:24:47.749Z,4.90
2022-11-12T01:27:15.282Z,4.74
2022-11-12T01:29:42.213Z,4.81
2022-11-12T01:32:09.165Z,4.75
2022-11-12T01:34:36.056Z,4.74
2022-11-12T01:37:03.038Z,4.71
2022-11-12T01:39:29.949Z,4.70
2022-11-12T01:41:56.910Z,4.64
2022-11-12T01:44:27.177Z,4.54
2022-11-12T01:47:06.960Z,4.58
2022-11-12T01:49:44.303Z,4.56
2022-11-12T01:52:25.633Z,4.52
2022-11-12T01:54:58.698Z,4.52
2022-11-12T01:57:34.894Z,4.49
2022-11-12T02:00:07.332Z,4.48
2022-11-12T02:02:36.487Z,4.44
2022-11-12T02:05:27.408Z,4.41
2022-11-12T02:08:20.963Z,4.43
2022-11-12T02:11:01.404Z,4.40
2022-11-12T02:14:05.897Z,4.38
2022-11-12T02:16:53.462Z,4.36
2022-11-12T02:19:51.338Z,4.35
2022-11-12T02:22:18.210Z,4.30
2022-11-12T02:24:45.177Z,4.25
2022-11-12T02:27:12.868Z,4.21
2022-11-12T02:29:46.629Z,4.21
2022-11-12T02:32:14.105Z,4.19
2022-11-12T02:34:41.758Z,4.17
2022-11-12T02:37:08.669Z,4.12
2022-11-12T02:39:35.629Z,4.12
2022-11-12T02:42:02.580Z,4.14
2022-11-12T02:44:30.223Z,4.13
2022-11-12T02:46:57.207Z,4.13
2022-11-12T02:49:24.346Z,4.12
2022-11-12T02:51:51.237Z,4.02
2022-11-12T02:54:18.199Z,4.00
2022-11-12T02:56:45.123Z,3.95
2022-11-12T02:59:12.033Z,3.95
2022-11-12T03:01:39.110Z,2.74
2022-11-12T03:04:06.050Z,3.72
2022-11-12T03:06:33.018Z,3.89
2022-11-12T03:08:59.985Z,3.91
2022-11-12T03:11:27.584Z,3.80
2022-11-12T03:13:54.485Z,3.86
2022-11-12T03:16:21.418Z,3.83
2022-11-12T03:18:48.326Z,3.75
2022-11-12T03:21:15.400Z,3.65
2022-11-12T03:23:42.271Z,3.28
2022-11-12T03:26:09.191Z,3.15
2022-11-12T03:28:36.234Z,3.02
2022-11-12T03:31:03.256Z,3.07
2022-11-12T03:33:30.241Z,3.08
2022-11-12T03:35:57.158Z,3.07
2022-11-12T03:38:24.502Z,3.10
2022-11-12T03:40:51.793Z,3.11
2022-11-12T03:43:18.735Z,3.15
2022-11-12T03:45:45.661Z,3.22
2022-11-12T03:48:13.299Z,3.25
2022-11-12T03:50:40.219Z,3.28
2022-11-12T03:53:07.437Z,3.26
2022-11-12T03:55:34.502Z,3.22
2022-11-12T03:58:01.518Z,3.21
2022-11-12T04:00:30.345Z,3.20
2022-11-12T04:02:58.347Z,3.18
2022-11-12T04:05:44.907Z,3.17
2022-11-12T04:08:36.755Z,3.17
2022-11-12T04:11:15.396Z,3.18
2022-11-12T04:13:47.735Z,3.17
2022-11-12T04:16:39.063Z,3.16
2022-11-12T04:19:25.917Z,3.19
2022-11-12T04:21:55.435Z,3.10
2022-11-12T04:24:42.157Z,2.98
2022-11-12T04:27:12.857Z,2.97
2022-11-12T04:29:58.453Z,2.98
2022-11-12T04:32:26.087Z,2.99
2022-11-12T04:34:53.939Z,2.98
2022-11-12T04:37:23.628Z,2.94
2022-11-12T04:39:51.773Z,2.84
2022-11-12T04:42:37.631Z,2.82
2022-11-12T04:45:11.068Z,2.64
2022-11-12T04:47:40.830Z,2.61
2022-11-12T04:50:17.168Z,2.64
2022-11-12T04:52:44.482Z,2.63
2022-11-12T04:55:11.515Z,2.52
2022-11-12T04:57:39.452Z,2.52
2022-11-12T05:00:07.161Z,1.92
2022-11-12T05:02:34.101Z,2.53
2022-11-12T05:05:01.006Z,2.57
2022-11-12T05:07:27.964Z,2.61
2022-11-12T05:09:54.906Z,2.58
2022-11-12T05:12:21.870Z,2.53
2022-11-12T05:14:48.780Z,2.38
2022-11-12T05:17:15.729Z,2.38
2022-11-12T05:19:42.689Z,2.36
2022-11-12T05:22:33.318Z,2.15
2022-11-12T05:24:59.569Z,2.34
2022-11-12T05:27:26.605Z,2.29
2022-11-12T05:29:53.573Z,1.99
2022-11-12T05:32:20.777Z,2.14
2022-11-12T05:34:47.746Z,2.14
2022-11-12T05:37:15.345Z,2.15
2022-11-12T05:39:42.378Z,2.11
2022-11-12T05:42:14.144Z,1.55
2022-11-12T05:44:41.799Z,1.79
2022-11-12T05:47:08.786Z,1.66
2022-11-12T05:49:35.688Z,1.68
2022-11-12T05:52:02.645Z,1.71
2022-11-12T05:54:29.555Z,1.72
2022-11-12T05:56:56.467Z,1.58
2022-11-12T05:59:23.350Z,1.55
2022-11-12T06:01:50.577Z,1.51
2022-11-12T06:04:18.492Z,1.46
2022-11-12T06:06:45.683Z,1.43
2022-11-12T06:09:12.664Z,1.51
2022-11-12T06:11:39.807Z,1.53
2022-11-12T06:14:07.253Z,1.51
2022-11-12T06:16:34.397Z,1.54
2022-11-12T06:19:01.333Z,1.60
2022-11-12T06:21:28.790Z,1.65
2022-11-12T06:23:59.043Z,1.72
2022-11-12T06:26:28.754Z,1.80
2022-11-12T06:28:56.319Z,1.45
2022-11-12T06:31:23.876Z,1.85
2022-11-12T06:33:51.257Z,1.87
2022-11-12T06:36:20.637Z,1.78
2022-11-12T06:38:48.145Z,1.95
2022-11-12T06:41:15.249Z,2.00
2022-11-12T06:43:42.856Z,2.04
2022-11-12T06:46:14.220Z,2.05
2022-11-12T06:48:41.818Z,1.85
2022-11-12T06:51:20.294Z,2.07
2022-11-12T06:53:47.537Z,1.78
2022-11-12T06:56:15.631Z,1.99
2022-11-12T06:58:42.964Z,2.09
2022-11-12T07:01:15.543Z,2.18
2022-11-12T07:03:44.329Z,2.30
2022-11-12T07:06:19.411Z,2.36
2022-11-12T07:08:50.657Z,2.36
2022-11-12T07:11:21.475Z,2.41
2022-11-12T07:13:48.928Z,2.61
2022-11-12T07:16:18.923Z,2.70
2022-11-12T07:18:47.065Z,2.87
2022-11-12T07:21:19.186Z,3.04
2022-11-12T07:23:47.663Z,3.18
2022-11-12T07:26:18.165Z,3.31
2022-11-12T07:28:46.099Z,3.46
2022-11-12T07:31:15.767Z,3.58
2022-11-12T07:33:43.922Z,3.75
2022-11-12T07:36:13.363Z,3.90
2022-11-12T07:38:42.413Z,3.96
2022-11-12T07:41:16.094Z,4.27
2022-11-12T07:43:44.832Z,4.46
2022-11-12T07:46:20.768Z,4.65
2022-11-12T07:48:48.334Z,4.73
2022-11-12T07:51:20.952Z,4.99
2022-11-12T07:53:49.624Z,5.16
2022-11-12T07:56:20.421Z,5.25
2022-11-12T07:58:48.469Z,5.43
2022-11-12T08:01:30.921Z,5.55
2022-11-12T08:03:59.426Z,5.66
2022-11-12T08:06:27.469Z,5.65
2022-11-12T08:08:58.799Z,5.91
2022-11-12T08:11:26.744Z,6.04
2022-11-12T08:13:56.262Z,6.14
2022-11-12T08:16:23.524Z,6.27
2022-11-12T08:18:50.439Z,6.39
2022-11-12T08:21:18.644Z,6.52
2022-11-12T08:23:46.431Z,6.64
2022-11-12T08:26:16.297Z,6.70
2022-11-12T08:28:43.414Z,6.86
2022-11-12T08:31:16.672Z,6.90
2022-11-12T08:33:44.535Z,7.00
2022-11-12T08:36:13.950Z,7.11
2022-11-12T08:38:41.325Z,7.22
2022-11-12T08:41:10.744Z,7.26
2022-11-12T08:43:38.638Z,7.26
2022-11-12T08:46:05.663Z,7.35
2022-11-12T08:48:34.710Z,7.49
2022-11-12T08:51:03.060Z,7.61
2022-11-12T08:53:30.105Z,7.61
2022-11-12T08:55:57.782Z,7.88
2022-11-12T08:58:26.594Z,8.00
2022-11-12T09:00:54.673Z,8.14
2022-11-12T09:03:26.918Z,8.27
2022-11-12T09:05:54.762Z,8.37
2022-11-12T09:08:24.855Z,8.51
2022-11-12T09:10:52.467Z,8.47
2022-11-12T09:13:20.154Z,8.74
2022-11-12T09:15:47.924Z,8.88
2022-11-12T09:18:17.869Z,8.98
2022-11-12T09:20:44.961Z,8.95
2022-11-12T09:23:15.616Z,9.17
2022-11-12T09:25:43.634Z,9.24
2022-11-12T09:28:18.927Z,9.36
2022-11-12T09:30:50.576Z,9.43
2022-11-12T09:33:20.470Z,9.61
2022-11-12T09:35:47.874Z,9.77
2022-11-12T09:38:18.136Z,9.89
2022-11-12T09:41:08.234Z,10.05
2022-11-12T09:43:40.301Z,10.10
2022-11-12T09:46:28.347Z,10.29
2022-11-12T09:49:28.193Z,10.47
2022-11-12T09:52:05.914Z,10.59
2022-11-12T09:54:35.265Z,10.69
2022-11-12T09:57:02.705Z,10.84
2022-11-12T09:59:33.300Z,10.93
2022-11-12T10:02:19.899Z,11.05
2022-11-12T10:04:46.776Z,10.97
2022-11-12T10:07:39.444Z,11.13
2022-11-12T10:10:10.795Z,11.06
2022-11-12T10:13:14.807Z,11.42
2022-11-12T10:16:17.556Z,11.51
2022-11-12T10:18:59.488Z,11.57
2022-11-12T10:22:06.918Z,11.67
2022-11-12T10:24:40.411Z,11.84
2022-11-12T10:27:19.916Z,11.84
2022-11-12T10:30:01.301Z,11.86
2022-11-12T10:32:28.282Z,11.98
2022-11-12T10:34:55.267Z,12.11
2022-11-12T10:37:36.177Z,12.10
2022-11-12T10:40:22.786Z,12.05
2022-11-12T10:43:00.710Z,12.23
2022-11-12T10:45:28.549Z,12.37
2022-11-12T10:47:56.111Z,12.40
2022-11-12T10:50:29.858Z,12.46
2022-11-12T10:52:59.820Z,12.25
2022-11-12T10:55:38.386Z,12.46
2022-11-12T10:58:11.529Z,12.43
2022-11-12T11:01:02.676Z,12.63
2022-11-12T11:03:36.545Z,12.49
2022-11-12T11:06:15.663Z,12.47
2022-11-12T11:08:45.300Z,12.56
2022-11-12T11:11:27.907Z,12.65
2022-11-12T11:13:57.452Z,12.68
2022-11-12T11:16:29.478Z,12.76
2022-11-12T11:19:00.104Z,12.68
2022-11-12T11:21:45.300Z,12.79
2022-11-12T11:24:30.875Z,12.74
2022-11-12T11:27:04.330Z,12.83
2022-11-12T11:29:46.231Z,12.83
2022-11-12T11:32:37.463Z,12.77
2022-11-12T11:35:21.123Z,12.67
2022-11-12T11:38:03.262Z,12.44
2022-11-12T11:40:41.104Z,12.64
2022-11-12T11:43:36.031Z,12.69
2022-11-12T11:46:27.734Z,12.77
2022-11-12T11:49:02.831Z,12.79
2022-11-12T11:52:00.280Z,12.80
2022-11-12T11:54:45.673Z,12.62
2022-11-12T11:57:22.155Z,12.66
2022-11-12T12:00:16.400Z,12.86
2022-11-12T12:03:01.604Z,12.76
2022-11-12T12:05:43.723Z,12.70
2022-11-12T12:08:18.791Z,12.58
2022-11-12T12:11:08.911Z,12.80
2022-11-12T12:13:57.848Z,12.89
2022-11-12T12:16:49.991Z,12.79
2022-11-12T12:19:25.924Z,12.64
2022-11-12T12:21:53.724Z,12.86
2022-11-12T12:24:28.415Z,12.64
2022-11-12T12:27:09.476Z,12.36
2022-11-12T12:29:56.512Z,12.71
2022-11-12T12:32:37.239Z,12.84
2022-11-12T12:35:16.851Z,13.06
2022-11-12T12:37:55.729Z,13.21
2022-11-12T12:40:31.302Z,13.25
2022-11-12T12:43:32.826Z,13.35
2022-11-12T12:46:00.258Z,13.20
2022-11-12T12:48:32.114Z,13.19
2022-11-12T12:50:59.249Z,13.28
2022-11-12T12:53:26.097Z,13.10
2022-11-12T12:55:55.453Z,12.98
2022-11-12T12:58:41.577Z,13.18
2022-11-12T13:01:21.272Z,13.03
2022-11-12T13:03:53.504Z,13.13
2022-11-12T13:06:23.278Z,12.99
2022-11-12T13:09:02.321Z,13.15
2022-11-12T14:25:04.851Z,11.54
2022-11-12T15:38:03.491Z,7.76
2022-11-12T17:04:09.458Z,4.96
2022-11-12T17:06:40.720Z,4.89
2022-11-12T17:09:10.436Z,4.91
2022-11-12T17:11:38.097Z,4.78
2022-11-12T17:14:06.903Z,4.67
2022-11-12T17:16:35.061Z,4.76
2022-11-12T17:19:02.620Z,4.84
2022-11-12T17:21:30.384Z,4.92
2022-11-12T17:23:58.204Z,5.03
2022-11-12T17:26:25.175Z,5.05
2022-11-12T17:29:00.084Z,5.07
2022-11-12T17:31:31.070Z,5.08
2022-11-12T17:33:58.219Z,5.05
2022-11-12T17:36:28.803Z,4.99
2022-11-12T17:38:57.349Z,4.98
2022-11-12T17:41:25.223Z,4.92
2022-11-12T17:43:59.229Z,4.80
2022-11-12T17:46:27.308Z,4.69
2022-11-12T17:48:55.375Z,4.66
2022-11-12T17:51:26.209Z,4.58
2022-11-12T17:53:54.055Z,4.50
2022-11-12T17:56:23.213Z,4.48
2022-11-12T17:58:51.445Z,4.37
2022-11-12T18:01:22.936Z,4.24
2022-11-12T18:03:53.307Z,4.16
2022-11-12T18:06:30.355Z,4.07
2022-11-12T18:09:06.899Z,3.99
2022-11-12T18:11:47.130Z,4.04
2022-11-12T18:14:14.686Z,3.99
2022-11-12T18:16:42.032Z,3.92
2022-11-12T18:19:11.275Z,3.95
2022-11-12T18:21:40.194Z,3.96
2022-11-12T18:24:12.590Z,3.81
2022-11-12T18:26:39.714Z,3.67
2022-11-12T18:29:07.661Z,3.53
2022-11-12T18:31:34.714Z,3.59
2022-11-12T18:34:01.926Z,3.55
2022-11-12T18:36:29.486Z,3.43
2022-11-12T18:38:56.721Z,3.39
2022-11-12T18:41:27.068Z,3.44
2022-11-12T18:43:54.317Z,3.48
2022-11-12T18:46:21.767Z,3.51
2022-11-12T18:48:49.218Z,3.53
2022-11-12T18:51:19.031Z,3.55
2022-11-12T18:53:46.699Z,3.56
2022-11-12T18:56:16.807Z,3.60
2022-11-12T18:58:44.223Z,3.56
2022-11-12T19:01:17.160Z,3.66
2022-11-12T19:03:44.801Z,3.71
2022-11-12T19:06:14.212Z,3.82
2022-11-12T19:08:41.911Z,3.89
2022-11-12T19:11:11.585Z,3.93
2022-11-12T19:13:41.908Z,3.96
2022-11-12T19:16:17.221Z,3.98
2022-11-12T19:18:45.321Z,4.04
2022-11-12T19:21:15.156Z,4.08
2022-11-12T19:23:43.205Z,4.14
2022-11-12T19:26:15.589Z,4.18
2022-11-12T19:28:43.753Z,4.23
2022-11-12T19:31:25.609Z,4.28
2022-11-12T19:33:52.625Z,4.32
2022-11-12T19:36:25.067Z,4.34
2022-11-12T19:38:56.956Z,4.35
2022-11-12T19:41:24.693Z,4.34
2022-11-12T19:43:52.325Z,4.33
2022-11-12T19:46:20.215Z,4.20
2022-11-12T19:48:47.372Z,4.34
2022-11-12T19:51:14.672Z,4.39
2022-11-12T19:53:46.594Z,4.40
2022-11-12T19:56:17.420Z,4.53
2022-11-12T19:58:45.492Z,4.42
2022-11-12T20:01:14.620Z,4.62
2022-11-12T20:03:41.699Z,4.63
2022-11-12T20:06:14.486Z,4.66
2022-11-12T20:08:42.274Z,4.64
2022-11-12T20:11:10.314Z,4.66
2022-11-12T20:13:37.913Z,4.71
2022-11-12T20:16:25.509Z,4.72
2022-11-12T20:18:54.833Z,4.62
2022-11-12T20:21:22.954Z,4.76
2022-11-12T20:23:50.669Z,4.78
2022-11-12T20:26:17.693Z,4.74
2022-11-12T20:28:44.987Z,4.75
2022-11-12T20:31:17.795Z,4.77
2022-11-12T20:33:44.740Z,4.77
2022-11-12T20:36:14.442Z,4.81
2022-11-12T20:38:43.602Z,4.83
2022-11-12T20:41:14.918Z,4.78
2022-11-12T20:43:42.515Z,4.84
2022-11-12T20:46:11.685Z,4.84
2022-11-12T20:48:43.309Z,4.87
2022-11-12T20:51:23.728Z,4.77
2022-11-12T20:53:59.454Z,4.80
2022-11-12T20:56:29.190Z,4.77
2022-11-12T20:58:56.749Z,4.72
2022-11-12T21:01:25.295Z,4.76
2022-11-12T21:03:52.725Z,4.73
2022-11-12T21:06:21.909Z,4.71
2022-11-12T21:08:49.205Z,4.74
2022-11-12T21:11:18.263Z,4.78
2022-11-12T21:13:45.379Z,4.73
2022-11-12T21:16:13.580Z,4.80
2022-11-12T21:18:40.967Z,4.76
2022-11-12T21:21:11.071Z,4.73
2022-11-12T21:23:40.734Z,4.76
2022-11-12T21:26:18.359Z,4.67
2022-11-12T21:28:52.326Z,4.65
2022-11-12T21:31:21.865Z,4.70
2022-11-12T21:33:54.915Z,4.69
2022-11-12T21:36:22.828Z,4.63
2022-11-12T21:38:50.068Z,4.67
2022-11-12T21:41:21.432Z,4.70
2022-11-12T21:43:49.704Z,4.68
2022-11-12T21:46:22.395Z,4.66
2022-11-12T21:48:54.941Z,4.66
2022-11-12T21:51:24.988Z,4.71
2022-11-12T21:53:57.455Z,4.74
2022-11-12T21:56:25.290Z,4.81
2022-11-12T21:58:55.145Z,4.89
2022-11-12T22:01:27.243Z,4.74
2022-11-12T22:03:56.758Z,4.93
2022-11-12T22:06:25.828Z,4.93
2022-11-12T22:08:54.825Z,4.83
2022-11-12T22:11:23.120Z,4.75
2022-11-12T22:13:50.428Z,4.76
2022-11-12T22:16:22.617Z,4.77
2022-11-12T22:18:51.691Z,4.67
2022-11-12T22:21:21.887Z,4.60
2022-11-12T22:23:49.266Z,4.54
2022-11-12T22:26:21.432Z,4.47
2022-11-12T22:28:49.062Z,4.44
2022-11-12T22:31:19.136Z,4.47
2022-11-12T22:33:46.624Z,4.25
2022-11-12T22:36:16.496Z,4.30
2022-11-12T22:38:46.241Z,4.35
2022-11-12T22:41:25.602Z,4.37
2022-11-12T22:43:56.141Z,4.31
2022-11-12T22:46:25.999Z,4.14
2022-11-12T22:48:53.842Z,4.03
2022-11-12T22:51:24.295Z,3.78
2022-11-12T22:54:00.124Z,3.86
2022-11-12T22:56:30.680Z,3.88
2022-11-12T22:58:58.316Z,3.99
2022-11-12T23:01:28.337Z,4.07
2022-11-12T23:03:58.491Z,4.13
2022-11-12T23:06:27.426Z,4.16
2022-11-12T23:08:56.449Z,4.07
2022-11-12T23:11:26.254Z,4.11
2022-11-12T23:13:54.821Z,4.16
2022-11-12T23:16:26.636Z,4.22
2022-11-12T23:18:55.363Z,4.28
2022-11-12T23:21:28.005Z,4.14
2022-11-12T23:23:58.434Z,4.21
2022-11-12T23:26:27.664Z,4.22
2022-11-12T23:28:54.629Z,4.22
2022-11-12T23:31:27.440Z,4.28
2022-11-12T23:33:56.442Z,4.28
2022-11-12T23:36:25.225Z,4.33
2022-11-12T23:38:52.967Z,4.31
2022-11-12T23:41:26.152Z,4.31
2022-11-12T23:43:54.218Z,4.24
2022-11-12T23:46:22.092Z,4.23
2022-11-12T23:48:49.074Z,4.26
2022-11-12T23:51:19.300Z,4.24
2022-11-12T23:53:46.716Z,4.32
2022-11-12T23:56:15.539Z,4.40
2022-11-12T23:58:43.007Z,4.44
